createdAt,value
2023-10-18T00:00:45.122Z,101141.33
2023-10-18T00:05:52.481Z,101146.77
2023-10-18T00:11:03.148Z,101140.44
2023-10-18T00:16:11.079Z,101138.98
2023-10-18T00:21:16.819Z,101136.06
2023-10-18T00:26:23.938Z,101138.45
2023-10-18T00:31:32.217Z,101131.83
2023-10-18T00:36:39.465Z,101127.27
2023-10-18T00:41:46.675Z,101116.93
2023-10-18T00:46:55.488Z,101115.65
2023-10-18T00:52:02.894Z,101120.37
2023-10-18T00:57:10.831Z,101118.08
2023-10-18T01:02:20.621Z,101117.77
2023-10-18T01:07:29.124Z,101115.17
2023-10-18T01:12:36.921Z,101106.29
2023-10-18T01:17:46.589Z,101104.98
2023-10-18T01:22:53.870Z,101104.57
2023-10-18T01:28:02.191Z,101109.11
2023-10-18T01:33:11.811Z,101110.23
2023-10-18T01:38:21.357Z,101114.54
2023-10-18T01:43:29.599Z,101110.59
2023-10-18T01:48:39.382Z,101093.05
2023-10-18T01:53:52.253Z,101108.94
2023-10-18T01:58:59.811Z,101113.14
2023-10-18T02:04:13.055Z,101104.35
2023-10-18T02:09:21.836Z,101096.69
2023-10-18T02:14:30.205Z,101086.82
2023-10-18T02:19:38.332Z,101080.98
2023-10-18T02:24:45.782Z,101078.33
2023-10-18T02:29:53.546Z,101080.05
2023-10-18T02:35:00.709Z,101065.02
2023-10-18T02:40:30.340Z,101062.41
2023-10-18T02:45:37.794Z,101062.06
2023-10-18T02:50:46.826Z,101056.66
2023-10-18T02:55:57.787Z,101054.27
2023-10-18T03:01:07.248Z,101057.61
2023-10-18T03:06:15.498Z,101054.27
2023-10-18T03:11:23.012Z,101053.82
2023-10-18T03:16:41.157Z,101052.41
2023-10-18T03:21:49.670Z,101044.95
2023-10-18T03:27:07.554Z,101041.39
2023-10-18T03:32:21.616Z,101039.09
2023-10-18T03:37:31.852Z,101028.96
2023-10-18T03:42:39.044Z,101020.59
2023-10-18T03:47:59.033Z,101012.55
2023-10-18T03:53:09.288Z,101012.50
2023-10-18T03:58:23.890Z,101009.88
2023-10-18T04:03:31.485Z,101008.27
2023-10-18T04:08:38.770Z,101010.59
2023-10-18T04:13:46.429Z,101012.23
2023-10-18T04:18:54.401Z,101006.91
2023-10-18T04:24:00.518Z,101004.98
2023-10-18T04:29:11.930Z,101003.66
2023-10-18T04:34:21.962Z,101003.23
2023-10-18T04:39:29.596Z,100998.40
2023-10-18T04:44:36.969Z,101000.05
2023-10-18T04:49:51.569Z,101003.20
2023-10-18T04:55:06.624Z,101004.67
2023-10-18T05:00:36.471Z,100998.98
2023-10-18T05:05:46.739Z,100988.33
2023-10-18T05:11:18.054Z,100992.42
2023-10-18T05:16:28.444Z,100987.55
2023-10-18T05:21:39.724Z,100978.95
2023-10-18T05:26:55.274Z,100977.31
2023-10-18T05:32:11.246Z,100977.08
2023-10-18T05:37:20.813Z,100967.90
2023-10-18T05:42:28.183Z,100964.80
2023-10-18T05:47:35.899Z,100966.29
2023-10-18T05:52:50.507Z,100968.78
2023-10-18T05:57:58.058Z,100974.57
2023-10-18T06:03:08.453Z,100982.81
2023-10-18T06:08:15.864Z,100984.68
2023-10-18T06:13:23.552Z,100989.05
2023-10-18T06:18:38.684Z,100976.23
2023-10-18T06:23:55.883Z,100973.56
2023-10-18T06:29:10.062Z,100969.80
2023-10-18T06:34:19.081Z,100970.81
2023-10-18T06:39:29.263Z,100970.19
2023-10-18T06:44:44.543Z,100968.12
2023-10-18T06:50:15.392Z,100970.21
2023-10-18T06:55:37.492Z,100970.62
2023-10-18T07:00:47.929Z,100961.63
2023-10-18T07:05:57.618Z,100969.54
2023-10-18T07:11:19.852Z,100964.64
2023-10-18T07:16:40.388Z,100961.19
2023-10-18T07:21:46.511Z,100962.55
2023-10-18T07:26:54.626Z,100955.84
2023-10-18T07:32:08.228Z,100950.42
2023-10-18T07:37:26.177Z,100946.48
2023-10-18T07:42:36.301Z,100949.11
2023-10-18T07:52:55.132Z,100944.14
2023-10-18T07:58:05.104Z,100943.78
2023-10-18T08:03:12.526Z,100939.61
2023-10-18T08:08:20.055Z,100938.23
2023-10-18T08:13:29.154Z,100938.31
2023-10-18T08:18:43.860Z,100937.49
2023-10-18T08:23:51.064Z,100937.48
2023-10-18T08:28:59.010Z,100940.55
2023-10-18T08:34:07.986Z,100938.71
2023-10-18T08:39:17.540Z,100936.27
2023-10-18T08:44:26.510Z,100930.64
2023-10-18T08:49:45.488Z,100934.39
2023-10-18T08:54:54.215Z,100934.98
2023-10-18T09:00:18.289Z,100940.25
2023-10-18T09:05:26.648Z,100940.65
2023-10-18T09:10:50.336Z,100943.74
2023-10-18T09:16:03.016Z,100949.42
2023-10-18T09:21:19.364Z,100947.48
2023-10-18T09:26:28.615Z,100951.02
2023-10-18T09:31:35.962Z,100950.88
2023-10-18T09:36:56.395Z,100948.10
2023-10-18T09:42:04.334Z,100944.59
2023-10-18T09:47:12.132Z,100939.05
2023-10-18T09:52:20.398Z,100938.94
2023-10-18T09:57:34.608Z,100938.29
2023-10-18T10:02:42.305Z,100937.88
2023-10-18T10:07:49.524Z,100933.87
2023-10-18T10:12:59.867Z,100929.62
2023-10-18T10:18:12.979Z,100923.81
2023-10-18T10:23:22.117Z,100917.16
2023-10-18T10:29:09.884Z,100916.71
2023-10-18T10:34:28.142Z,100915.67
2023-10-18T10:39:37.247Z,100915.81
2023-10-18T10:45:11.139Z,100921.33
2023-10-18T10:50:52.583Z,100912.27
2023-10-18T10:56:18.547Z,100911.30
2023-10-18T11:02:07.888Z,100903.00
2023-10-18T11:07:23.204Z,100903.66
2023-10-18T11:12:34.483Z,100903.27
2023-10-18T11:17:43.968Z,100900.73
2023-10-18T11:22:52.656Z,100893.25
2023-10-18T11:28:22.457Z,100898.80
2023-10-18T11:33:48.403Z,100899.14
2023-10-18T11:39:13.755Z,100898.23
2023-10-18T11:44:32.685Z,100895.24
2023-10-18T11:49:42.074Z,100889.30
2023-10-18T11:54:51.333Z,100885.05
2023-10-18T12:00:19.949Z,100878.55
2023-10-18T12:05:29.373Z,100873.52
2023-10-18T12:10:37.057Z,100872.93
2023-10-18T12:15:44.606Z,100863.47
2023-10-18T12:20:52.916Z,100857.52
2023-10-18T12:26:07.419Z,100849.88
2023-10-18T12:31:15.304Z,100842.65
2023-10-18T12:36:33.666Z,100841.41
2023-10-18T12:41:42.010Z,100840.94
2023-10-18T12:46:51.972Z,100833.61
2023-10-18T12:52:02.367Z,100822.98
2023-10-18T12:57:15.494Z,100816.52
2023-10-18T13:02:37.348Z,100816.38
2023-10-18T13:07:45.764Z,100814.55
2023-10-18T13:12:55.458Z,100816.05
2023-10-18T13:18:02.882Z,100806.64
2023-10-18T13:23:10.121Z,100798.64
2023-10-18T13:28:26.127Z,100790.99
2023-10-18T13:33:35.214Z,100786.75
2023-10-18T13:38:43.036Z,100785.37
2023-10-18T13:43:56.840Z,100783.54
2023-10-18T13:49:09.499Z,100785.90
2023-10-18T13:54:16.817Z,100780.04
2023-10-18T13:59:24.216Z,100772.98
2023-10-18T14:04:34.381Z,100770.73
2023-10-18T14:09:45.434Z,100767.41
2023-10-18T14:14:54.111Z,100763.08
2023-10-18T14:20:15.800Z,100759.89
2023-10-18T14:25:23.907Z,100759.27
2023-10-18T14:30:35.630Z,100749.80
2023-10-18T14:35:42.934Z,100747.04
2023-10-18T14:41:03.678Z,100744.68
2023-10-18T14:46:23.309Z,100743.14
2023-10-18T14:51:37.030Z,100741.08
2023-10-18T14:56:46.055Z,100733.52
2023-10-18T15:02:10.428Z,100723.60
2023-10-18T15:07:24.497Z,100721.36
2023-10-18T15:12:32.529Z,100724.29
2023-10-18T15:17:41.665Z,100722.59
2023-10-18T15:22:49.723Z,100720.14
2023-10-18T15:27:57.019Z,100723.58
2023-10-18T15:33:04.514Z,100723.86
2023-10-18T15:38:11.931Z,100718.77
2023-10-18T15:43:19.184Z,100719.14
2023-10-18T15:48:27.724Z,100715.62
2023-10-18T15:53:41.788Z,100714.83
2023-10-18T15:59:02.676Z,100718.71
2023-10-18T16:04:10.558Z,100723.98
2023-10-18T16:09:19.954Z,100718.63
2023-10-18T16:14:30.377Z,100717.70
2023-10-18T16:19:38.183Z,100722.89
2023-10-18T16:24:45.859Z,100728.23
2023-10-18T16:29:54.013Z,100725.77
2023-10-18T16:34:59.771Z,100722.02
2023-10-18T16:40:09.363Z,100723.95
2023-10-18T16:45:18.310Z,100727.81
2023-10-18T16:50:28.199Z,100727.44
2023-10-18T16:55:37.304Z,100724.09
2023-10-18T17:00:44.813Z,100720.95
2023-10-18T17:05:56.568Z,100721.91
2023-10-18T17:11:04.342Z,100720.95
2023-10-18T17:16:14.600Z,100722.20
2023-10-18T17:21:22.842Z,100721.98
2023-10-18T17:26:28.464Z,100714.65
2023-10-18T17:31:37.597Z,100712.26
2023-10-18T17:36:44.800Z,100709.98
2023-10-18T17:41:54.460Z,100709.21
2023-10-18T17:47:02.208Z,100707.13
2023-10-18T17:52:10.037Z,100699.90
2023-10-18T17:57:19.706Z,100699.13
2023-10-18T18:02:27.023Z,100699.52
2023-10-18T18:07:34.479Z,100697.45
2023-10-18T18:12:41.904Z,100692.36
2023-10-18T18:17:49.413Z,100689.43
2023-10-18T18:22:56.874Z,100687.73
2023-10-18T18:28:04.310Z,100683.54
2023-10-18T18:33:11.930Z,100683.23
2023-10-18T18:38:19.326Z,100683.88
2023-10-18T18:43:29.081Z,100690.16
2023-10-18T18:48:36.395Z,100693.90
2023-10-18T18:53:43.792Z,100695.48
2023-10-18T18:58:51.119Z,100685.80
2023-10-18T19:03:58.691Z,100682.68
2023-10-18T19:09:06.578Z,100681.20
2023-10-18T19:14:13.984Z,100681.56
2023-10-18T19:19:22.621Z,100680.17
2023-10-18T19:24:30.036Z,100674.41
2023-10-18T19:29:37.439Z,100669.98
2023-10-18T19:34:44.799Z,100670.16
2023-10-18T19:39:51.983Z,100668.98
2023-10-18T19:45:00.440Z,100670.24
2023-10-18T19:50:10.884Z,100665.40
2023-10-18T19:55:19.263Z,100663.73
2023-10-18T20:00:29.108Z,100663.08
2023-10-18T20:05:43.994Z,100659.01
2023-10-18T20:10:53.369Z,100653.96
2023-10-18T20:16:00.617Z,100646.55
2023-10-18T20:21:08.854Z,100636.05
2023-10-18T20:26:20.810Z,100635.67
2023-10-18T20:31:29.136Z,100636.23
2023-10-18T20:36:36.397Z,100633.54
2023-10-18T20:41:45.081Z,100636.85
2023-10-18T20:46:52.616Z,100631.70
2023-10-18T20:52:01.123Z,100623.71
2023-10-18T21:02:20.712Z,100612.86
2023-10-18T21:07:27.985Z,100610.55
2023-10-18T21:12:37.833Z,100606.52
2023-10-18T21:17:46.744Z,100603.44
2023-10-18T21:22:58.382Z,100602.16
2023-10-18T21:28:06.719Z,100595.98
2023-10-18T21:33:17.002Z,100594.25
2023-10-18T21:38:24.195Z,100594.46
2023-10-18T21:43:32.581Z,100590.05
2023-10-18T21:48:40.610Z,100588.65
2023-10-18T21:53:46.656Z,100582.76
2023-10-18T21:58:54.414Z,100580.76
2023-10-18T22:04:05.141Z,100583.02
2023-10-18T22:09:33.024Z,100580.16
2023-10-18T22:14:44.454Z,100577.89
2023-10-18T22:19:52.638Z,100569.04
2023-10-18T22:25:00.115Z,100564.70
2023-10-18T22:30:20.785Z,100562.98
2023-10-18T22:35:27.961Z,100560.98
2023-10-18T22:40:37.089Z,100562.73
2023-10-18T22:45:53.035Z,100562.63
2023-10-18T22:51:10.838Z,100558.14
2023-10-18T22:56:30.636Z,100550.02
2023-10-18T23:01:39.278Z,100545.49
2023-10-18T23:06:48.462Z,100543.09
2023-10-18T23:11:59.134Z,100531.62
2023-10-18T23:17:13.543Z,100530.56
2023-10-18T23:22:25.318Z,100525.71
2023-10-18T23:27:50.460Z,100514.11
2023-10-18T23:33:02.143Z,100507.84
2023-10-18T23:38:19.048Z,100500.59
2023-10-18T23:43:44.367Z,100495.77
2023-10-18T23:49:26.204Z,100491.51
2023-10-18T23:54:37.813Z,100483.75
2023-10-18T23:59:49.399Z,100478.98
